sensor_id;sensor_type;location;lat;lon;timestamp;pressure;altitude;pressure_sealevel;temperature;humidity
20013;BME280;10167;42.852;23.042;2023-12-14T00:02:09;93903.22;;;5.73;100.00
20013;BME280;10167;42.852;23.042;2023-12-14T00:04:40;93906.16;;;5.77;100.00
20013;BME280;10167;42.852;23.042;2023-12-14T00:07:10;93914.19;;;5.70;100.00
20013;BME280;10167;42.852;23.042;2023-12-14T00:09:43;93910.63;;;5.76;100.00
20013;BME280;10167;42.852;23.042;2023-12-14T00:12:13;93913.50;;;5.75;100.00
20013;BME280;10167;42.852;23.042;2023-12-14T00:14:44;93904.81;;;5.74;100.00
20013;BME280;10167;42.852;23.042;2023-12-14T00:17:14;93897.97;;;5.73;100.00
20013;BME280;10167;42.852;23.042;2023-12-14T00:19:45;93901.25;;;5.80;100.00
20013;BME280;10167;42.852;23.042;2023-12-14T00:22:15;93903.56;;;5.89;100.00
20013;BME280;10167;42.852;23.042;2023-12-14T00:24:44;93910.41;;;5.90;100.00
20013;BME280;10167;42.852;23.042;2023-12-14T00:27:15;93895.88;;;5.99;100.00
20013;BME280;10167;42.852;23.042;2023-12-14T00:29:47;93894.81;;;6.11;100.00
20013;BME280;10167;42.852;23.042;2023-12-14T00:32:17;93893.97;;;6.23;100.00
20013;BME280;10167;42.852;23.042;2023-12-14T00:34:47;93898.44;;;6.22;100.00
20013;BME280;10167;42.852;23.042;2023-12-14T00:37:17;93903.00;;;6.27;100.00
20013;BME280;10167;42.852;23.042;2023-12-14T00:39:47;93907.22;;;6.28;100.00
20013;BME280;10167;42.852;23.042;2023-12-14T00:42:16;93897.38;;;6.35;100.00
20013;BME280;10167;42.852;23.042;2023-12-14T00:44:48;93902.06;;;6.33;100.00
20013;BME280;10167;42.852;23.042;2023-12-14T00:47:18;93903.88;;;6.32;100.00
20013;BME280;10167;42.852;23.042;2023-12-14T00:49:48;93895.44;;;6.30;100.00
20013;BME280;10167;42.852;23.042;2023-12-14T00:52:17;93905.97;;;6.30;100.00
20013;BME280;10167;42.852;23.042;2023-12-14T00:54:46;93907.66;;;6.36;100.00
20013;BME280;10167;42.852;23.042;2023-12-14T00:57:17;93902.97;;;6.38;100.00
20013;BME280;10167;42.852;23.042;2023-12-14T00:59:48;93904.63;;;6.44;100.00
20013;BME280;10167;42.852;23.042;2023-12-14T01:02:18;93902.44;;;6.53;100.00
20013;BME280;10167;42.852;23.042;2023-12-14T01:04:48;93898.69;;;6.49;100.00
20013;BME280;10167;42.852;23.042;2023-12-14T01:07:17;93908.41;;;6.48;100.00
20013;BME280;10167;42.852;23.042;2023-12-14T01:09:46;93902.34;;;6.48;100.00
20013;BME280;10167;42.852;23.042;2023-12-14T01:12:15;93901.22;;;6.44;100.00
20013;BME280;10167;42.852;23.042;2023-12-14T01:14:45;93901.34;;;6.37;100.00
20013;BME280;10167;42.852;23.042;2023-12-14T01:17:16;93896.38;;;6.52;100.00
20013;BME280;10167;42.852;23.042;2023-12-14T01:19:46;93904.75;;;6.49;100.00
20013;BME280;10167;42.852;23.042;2023-12-14T01:22:16;93890.56;;;6.50;100.00
20013;BME280;10167;42.852;23.042;2023-12-14T01:24:46;93883.00;;;6.54;100.00
20013;BME280;10167;42.852;23.042;2023-12-14T01:27:16;93893.19;;;6.50;100.00
20013;BME280;10167;42.852;23.042;2023-12-14T01:29:45;93902.22;;;6.54;100.00
20013;BME280;10167;42.852;23.042;2023-12-14T01:32:16;93887.41;;;6.37;100.00
20013;BME280;10167;42.852;23.042;2023-12-14T01:34:45;93877.84;;;6.31;100.00
20013;BME280;10167;42.852;23.042;2023-12-14T01:37:15;93868.38;;;6.30;100.00
20013;BME280;10167;42.852;23.042;2023-12-14T01:39:44;93867.91;;;6.21;100.00
20013;BME280;10167;42.852;23.042;2023-12-14T01:42:14;93863.38;;;6.16;100.00
20013;BME280;10167;42.852;23.042;2023-12-14T01:44:44;93861.69;;;6.10;100.00
20013;BME280;10167;42.852;23.042;2023-12-14T01:47:13;93860.66;;;6.11;100.00
20013;BME280;10167;42.852;23.042;2023-12-14T01:49:44;93859.81;;;5.94;100.00
20013;BME280;10167;42.852;23.042;2023-12-14T01:52:13;93864.09;;;6.00;100.00
20013;BME280;10167;42.852;23.042;2023-12-14T01:54:43;93872.00;;;6.00;100.00
20013;BME280;10167;42.852;23.042;2023-12-14T01:57:12;93860.16;;;5.98;100.00
20013;BME280;10167;42.852;23.042;2023-12-14T01:59:41;93866.78;;;5.89;100.00
20013;BME280;10167;42.852;23.042;2023-12-14T02:02:11;93864.94;;;5.89;100.00
20013;BME280;10167;42.852;23.042;2023-12-14T02:04:41;93867.78;;;5.76;100.00
20013;BME280;10167;42.852;23.042;2023-12-14T02:07:12;93873.31;;;5.74;100.00
20013;BME280;10167;42.852;23.042;2023-12-14T02:09:41;93863.13;;;5.66;100.00
20013;BME280;10167;42.852;23.042;2023-12-14T02:12:10;93864.72;;;5.67;100.00
20013;BME280;10167;42.852;23.042;2023-12-14T02:14:40;93864.72;;;5.67;100.00
20013;BME280;10167;42.852;23.042;2023-12-14T02:17:09;93869.06;;;5.73;100.00
20013;BME280;10167;42.852;23.042;2023-12-14T02:19:39;93868.38;;;5.78;100.00
20013;BME280;10167;42.852;23.042;2023-12-14T02:22:08;93879.09;;;5.76;100.00
20013;BME280;10167;42.852;23.042;2023-12-14T02:24:39;93877.06;;;5.67;100.00
20013;BME280;10167;42.852;23.042;2023-12-14T02:27:09;93870.09;;;5.72;100.00
20013;BME280;10167;42.852;23.042;2023-12-14T02:29:38;93865.97;;;5.76;100.00
20013;BME280;10167;42.852;23.042;2023-12-14T02:32:08;93871.47;;;5.75;100.00
20013;BME280;10167;42.852;23.042;2023-12-14T02:34:37;93871.13;;;5.71;100.00
20013;BME280;10167;42.852;23.042;2023-12-14T02:37:07;93857.88;;;5.78;100.00
20013;BME280;10167;42.852;23.042;2023-12-14T02:39:36;93848.28;;;5.72;100.00
20013;BME280;10167;42.852;23.042;2023-12-14T02:42:07;93859.69;;;5.77;100.00
20013;BME280;10167;42.852;23.042;2023-12-14T02:44:36;93867.28;;;5.62;100.00
20013;BME280;10167;42.852;23.042;2023-12-14T02:47:06;93868.06;;;5.63;100.00
20013;BME280;10167;42.852;23.042;2023-12-14T02:49:35;93860.50;;;5.66;100.00
20013;BME280;10167;42.852;23.042;2023-12-14T02:52:05;93861.88;;;5.69;100.00
20013;BME280;10167;42.852;23.042;2023-12-14T02:54:38;93862.13;;;5.56;100.00
20013;BME280;10167;42.852;23.042;2023-12-14T02:57:08;93863.03;;;5.61;100.00
20013;BME280;10167;42.852;23.042;2023-12-14T02:59:38;93856.31;;;5.54;100.00
20013;BME280;10167;42.852;23.042;2023-12-14T03:02:08;93856.66;;;5.57;100.00
20013;BME280;10167;42.852;23.042;2023-12-14T03:04:37;93853.69;;;5.54;100.00
20013;BME280;10167;42.852;23.042;2023-12-14T03:07:07;93861.00;;;5.52;100.00
20013;BME280;10167;42.852;23.042;2023-12-14T03:09:39;93850.16;;;5.48;100.00
20013;BME280;10167;42.852;23.042;2023-12-14T03:12:13;93838.53;;;5.32;100.00
20013;BME280;10167;42.852;23.042;2023-12-14T03:14:42;93846.75;;;5.47;100.00
20013;BME280;10167;42.852;23.042;2023-12-14T03:17:12;93850.84;;;5.43;100.00
20013;BME280;10167;42.852;23.042;2023-12-14T03:19:42;93852.56;;;5.38;100.00
20013;BME280;10167;42.852;23.042;2023-12-14T03:22:11;93848.69;;;5.40;100.00
20013;BME280;10167;42.852;23.042;2023-12-14T03:24:42;93853.81;;;5.35;100.00
20013;BME280;10167;42.852;23.042;2023-12-14T03:27:13;93851.63;;;5.44;100.00
20013;BME280;10167;42.852;23.042;2023-12-14T03:29:42;93850.63;;;5.45;100.00
20013;BME280;10167;42.852;23.042;2023-12-14T03:32:12;93841.50;;;5.36;100.00
20013;BME280;10167;42.852;23.042;2023-12-14T03:34:42;93854.06;;;5.34;100.00
20013;BME280;10167;42.852;23.042;2023-12-14T03:37:11;93840.59;;;5.30;100.00
20013;BME280;10167;42.852;23.042;2023-12-14T03:39:40;93839.00;;;5.41;100.00
20013;BME280;10167;42.852;23.042;2023-12-14T03:42:09;93848.56;;;5.35;100.00
20013;BME280;10167;42.852;23.042;2023-12-14T03:44:41;93850.97;;;5.37;100.00
20013;BME280;10167;42.852;23.042;2023-12-14T03:47:10;93835.22;;;5.37;100.00
20013;BME280;10167;42.852;23.042;2023-12-14T03:49:40;93842.06;;;5.38;100.00
20013;BME280;10167;42.852;23.042;2023-12-14T03:52:09;93825.63;;;5.42;100.00
20013;BME280;10167;42.852;23.042;2023-12-14T03:54:38;93850.06;;;5.31;100.00
20013;BME280;10167;42.852;23.042;2023-12-14T03:57:08;93836.91;;;5.43;100.00
20013;BME280;10167;42.852;23.042;2023-12-14T03:59:40;93831.22;;;5.46;100.00
20013;BME280;10167;42.852;23.042;2023-12-14T04:02:10;93834.50;;;5.53;100.00
20013;BME280;10167;42.852;23.042;2023-12-14T04:04:40;93841.13;;;5.56;100.00
20013;BME280;10167;42.852;23.042;2023-12-14T04:07:10;93837.09;;;5.65;100.00
20013;BME280;10167;42.852;23.042;2023-12-14T04:09:39;93850.22;;;5.65;100.00
20013;BME280;10167;42.852;23.042;2023-12-14T04:12:08;93838.81;;;5.71;100.00
20013;BME280;10167;42.852;23.042;2023-12-14T04:14:37;93838.03;;;5.70;100.00
20013;BME280;10167;42.852;23.042;2023-12-14T04:17:08;93835.50;;;5.75;100.00
20013;BME280;10167;42.852;23.042;2023-12-14T04:19:39;93834.22;;;5.78;100.00
20013;BME280;10167;42.852;23.042;2023-12-14T04:22:08;93828.88;;;5.73;100.00
20013;BME280;10167;42.852;23.042;2023-12-14T04:24:38;93831.97;;;5.70;100.00
20013;BME280;10167;42.852;23.042;2023-12-14T04:27:07;93826.59;;;5.65;100.00
20013;BME280;10167;42.852;23.042;2023-12-14T04:29:38;93828.44;;;5.64;100.00
20013;BME280;10167;42.852;23.042;2023-12-14T04:32:09;93825.25;;;5.62;100.00
20013;BME280;10167;42.852;23.042;2023-12-14T04:34:39;93825.25;;;5.62;100.00
20013;BME280;10167;42.852;23.042;2023-12-14T04:37:08;93831.53;;;5.61;100.00
20013;BME280;10167;42.852;23.042;2023-12-14T04:39:37;93832.56;;;5.60;100.00
20013;BME280;10167;42.852;23.042;2023-12-14T04:42:07;93833.25;;;5.56;100.00
20013;BME280;10167;42.852;23.042;2023-12-14T04:44:36;93837.59;;;5.50;100.00
20013;BME280;10167;42.852;23.042;2023-12-14T04:47:05;93842.72;;;5.57;100.00
20013;BME280;10167;42.852;23.042;2023-12-14T04:49:37;93847.53;;;5.60;100.00
20013;BME280;10167;42.852;23.042;2023-12-14T04:52:06;93844.31;;;5.58;100.00
20013;BME280;10167;42.852;23.042;2023-12-14T04:54:38;93847.31;;;5.50;100.00
20013;BME280;10167;42.852;23.042;2023-12-14T04:57:08;93846.50;;;5.49;100.00
20013;BME280;10167;42.852;23.042;2023-12-14T04:59:38;93845.25;;;5.52;100.00
20013;BME280;10167;42.852;23.042;2023-12-14T05:02:10;93847.53;;;5.36;100.00
20013;BME280;10167;42.852;23.042;2023-12-14T05:04:41;93840.03;;;5.40;100.00
20013;BME280;10167;42.852;23.042;2023-12-14T05:07:11;93839.44;;;5.50;100.00
20013;BME280;10167;42.852;23.042;2023-12-14T05:09:40;93836.59;;;5.51;100.00
20013;BME280;10167;42.852;23.042;2023-12-14T05:12:11;93841.94;;;5.44;100.00
20013;BME280;10167;42.852;23.042;2023-12-14T05:14:40;93850.63;;;5.33;100.00
20013;BME280;10167;42.852;23.042;2023-12-14T05:17:09;93840.13;;;5.45;100.00
20013;BME280;10167;42.852;23.042;2023-12-14T05:19:40;93847.06;;;5.63;100.00
20013;BME280;10167;42.852;23.042;2023-12-14T05:22:09;93850.47;;;5.75;100.00
20013;BME280;10167;42.852;23.042;2023-12-14T05:24:41;93842.44;;;5.93;100.00
20013;BME280;10167;42.852;23.042;2023-12-14T05:27:12;93848.88;;;6.14;100.00
20013;BME280;10167;42.852;23.042;2023-12-14T05:29:41;93847.97;;;6.37;100.00
20013;BME280;10167;42.852;23.042;2023-12-14T05:32:11;93858.22;;;6.50;100.00
20013;BME280;10167;42.852;23.042;2023-12-14T05:34:42;93859.66;;;6.57;100.00
20013;BME280;10167;42.852;23.042;2023-12-14T05:37:12;93851.63;;;6.64;100.00
20013;BME280;10167;42.852;23.042;2023-12-14T05:39:44;93851.28;;;6.61;100.00
20013;BME280;10167;42.852;23.042;2023-12-14T05:42:16;93865.69;;;6.58;100.00
20013;BME280;10167;42.852;23.042;2023-12-14T05:44:46;93876.50;;;6.73;100.00
20013;BME280;10167;42.852;23.042;2023-12-14T05:47:16;93870.59;;;6.83;100.00
20013;BME280;10167;42.852;23.042;2023-12-14T05:49:47;93859.75;;;6.79;100.00
20013;BME280;10167;42.852;23.042;2023-12-14T05:52:18;93852.25;;;6.71;100.00
20013;BME280;10167;42.852;23.042;2023-12-14T05:54:47;93863.56;;;6.72;100.00
20013;BME280;10167;42.852;23.042;2023-12-14T05:57:16;93865.19;;;6.73;100.00
20013;BME280;10167;42.852;23.042;2023-12-14T05:59:45;93862.16;;;6.81;100.00
20013;BME280;10167;42.852;23.042;2023-12-14T06:02:15;93864.53;;;6.82;100.00
20013;BME280;10167;42.852;23.042;2023-12-14T06:04:47;93876.25;;;6.91;100.00
20013;BME280;10167;42.852;23.042;2023-12-14T06:07:16;93881.91;;;7.00;100.00
20013;BME280;10167;42.852;23.042;2023-12-14T06:09:45;93877.53;;;7.06;100.00
20013;BME280;10167;42.852;23.042;2023-12-14T06:12:15;93872.63;;;7.09;100.00
20013;BME280;10167;42.852;23.042;2023-12-14T06:14:44;93883.94;;;7.10;100.00
20013;BME280;10167;42.852;23.042;2023-12-14T06:17:14;93874.91;;;7.06;100.00
20013;BME280;10167;42.852;23.042;2023-12-14T06:19:44;93887.50;;;7.04;100.00
20013;BME280;10167;42.852;23.042;2023-12-14T06:22:15;93884.56;;;7.00;100.00
20013;BME280;10167;42.852;23.042;2023-12-14T06:24:44;93889.88;;;6.88;100.00
20013;BME280;10167;42.852;23.042;2023-12-14T06:27:15;93893.19;;;6.96;100.00
20013;BME280;10167;42.852;23.042;2023-12-14T06:29:45;93895.47;;;6.92;100.00
20013;BME280;10167;42.852;23.042;2023-12-14T06:32:15;93893.66;;;6.92;100.00
20013;BME280;10167;42.852;23.042;2023-12-14T06:34:44;93900.97;;;6.90;100.00
20013;BME280;10167;42.852;23.042;2023-12-14T06:37:15;93895.88;;;7.01;100.00
20013;BME280;10167;42.852;23.042;2023-12-14T06:39:45;93901.81;;;7.08;100.00
20013;BME280;10167;42.852;23.042;2023-12-14T06:42:15;93903.69;;;7.12;100.00
20013;BME280;10167;42.852;23.042;2023-12-14T06:44:44;93902.53;;;7.20;100.00
20013;BME280;10167;42.852;23.042;2023-12-14T06:47:14;93909.69;;;7.24;100.00
20013;BME280;10167;42.852;23.042;2023-12-14T06:49:44;93899.66;;;7.21;100.00
20013;BME280;10167;42.852;23.042;2023-12-14T06:52:15;93887.19;;;7.17;100.00
20013;BME280;10167;42.852;23.042;2023-12-14T06:54:45;93903.78;;;7.17;100.00
20013;BME280;10167;42.852;23.042;2023-12-14T06:57:16;93919.59;;;7.17;100.00
20013;BME280;10167;42.852;23.042;2023-12-14T06:59:45;93915.44;;;7.21;100.00
20013;BME280;10167;42.852;23.042;2023-12-14T07:02:15;93907.00;;;7.19;100.00
20013;BME280;10167;42.852;23.042;2023-12-14T07:04:45;93903.31;;;7.20;100.00
20013;BME280;10167;42.852;23.042;2023-12-14T07:07:17;93912.97;;;7.15;100.00
20013;BME280;10167;42.852;23.042;2023-12-14T07:09:46;93915.19;;;7.23;100.00
20013;BME280;10167;42.852;23.042;2023-12-14T07:12:16;93907.16;;;7.29;100.00
20013;BME280;10167;42.852;23.042;2023-12-14T07:14:45;93912.56;;;7.23;100.00
20013;BME280;10167;42.852;23.042;2023-12-14T07:17:14;93920.78;;;7.26;100.00
20013;BME280;10167;42.852;23.042;2023-12-14T07:19:45;93921.91;;;7.31;100.00
20013;BME280;10167;42.852;23.042;2023-12-14T07:22:17;93914.00;;;7.31;100.00
20013;BME280;10167;42.852;23.042;2023-12-14T07:24:46;93909.94;;;7.40;100.00
20013;BME280;10167;42.852;23.042;2023-12-14T07:27:26;93925.72;;;7.40;100.00
20013;BME280;10167;42.852;23.042;2023-12-14T07:29:55;93928.28;;;7.51;100.00
20013;BME280;10167;42.852;23.042;2023-12-14T07:32:24;93931.88;;;7.28;100.00
20013;BME280;10167;42.852;23.042;2023-12-14T07:34:54;93926.06;;;7.43;100.00
20013;BME280;10167;42.852;23.042;2023-12-14T07:37:25;93925.69;;;7.56;100.00
20013;BME280;10167;42.852;23.042;2023-12-14T07:39:54;93935.63;;;7.66;100.00
20013;BME280;10167;42.852;23.042;2023-12-14T07:42:24;93939.91;;;7.72;100.00
20013;BME280;10167;42.852;23.042;2023-12-14T07:44:54;93930.78;;;7.80;100.00
20013;BME280;10167;42.852;23.042;2023-12-14T07:47:24;93938.84;;;7.90;100.00
20013;BME280;10167;42.852;23.042;2023-12-14T07:49:53;93936.16;;;8.07;100.00
20013;BME280;10167;42.852;23.042;2023-12-14T07:52:23;93934.13;;;8.14;100.00
20013;BME280;10167;42.852;23.042;2023-12-14T07:54:54;93928.69;;;8.20;100.00
20013;BME280;10167;42.852;23.042;2023-12-14T07:57:24;93928.50;;;8.49;100.00
20013;BME280;10167;42.852;23.042;2023-12-14T07:59:53;93938.94;;;8.60;100.00
20013;BME280;10167;42.852;23.042;2023-12-14T08:02:23;93944.63;;;8.74;100.00
20013;BME280;10167;42.852;23.042;2023-12-14T08:04:53;93953.94;;;8.82;100.00
20013;BME280;10167;42.852;23.042;2023-12-14T08:07:23;93949.38;;;8.99;100.00
20013;BME280;10167;42.852;23.042;2023-12-14T08:09:58;93957.94;;;9.11;100.00
20013;BME280;10167;42.852;23.042;2023-12-14T08:12:29;93960.59;;;9.16;100.00
20013;BME280;10167;42.852;23.042;2023-12-14T08:14:59;93968.09;;;9.24;100.00
20013;BME280;10167;42.852;23.042;2023-12-14T08:17:31;93980.06;;;9.37;100.00
20013;BME280;10167;42.852;23.042;2023-12-14T08:20:04;93966.44;;;9.50;100.00
20013;BME280;10167;42.852;23.042;2023-12-14T08:22:36;93977.94;;;9.66;100.00
20013;BME280;10167;42.852;23.042;2023-12-14T08:25:14;93990.22;;;9.82;100.00
20013;BME280;10167;42.852;23.042;2023-12-14T08:27:44;93994.25;;;9.90;100.00
20013;BME280;10167;42.852;23.042;2023-12-14T08:30:15;93997.69;;;9.90;100.00
20013;BME280;10167;42.852;23.042;2023-12-14T08:32:45;93996.44;;;9.66;100.00
20013;BME280;10167;42.852;23.042;2023-12-14T08:35:14;93999.66;;;9.68;100.00
20013;BME280;10167;42.852;23.042;2023-12-14T08:37:44;93998.06;;;9.72;100.00
20013;BME280;10167;42.852;23.042;2023-12-14T08:40:14;94010.03;;;9.79;100.00
20013;BME280;10167;42.852;23.042;2023-12-14T08:42:44;94013.50;;;9.80;100.00
20013;BME280;10167;42.852;23.042;2023-12-14T08:45:14;94012.25;;;9.93;100.00
20013;BME280;10167;42.852;23.042;2023-12-14T08:47:44;94008.63;;;10.04;100.00
20013;BME280;10167;42.852;23.042;2023-12-14T08:50:13;94008.09;;;10.07;100.00
20013;BME280;10167;42.852;23.042;2023-12-14T08:52:44;94023.06;;;10.23;100.00
20013;BME280;10167;42.852;23.042;2023-12-14T08:55:15;94005.41;;;10.39;100.00
20013;BME280;10167;42.852;23.042;2023-12-14T08:57:44;94010.84;;;10.59;100.00
20013;BME280;10167;42.852;23.042;2023-12-14T09:00:15;94014.91;;;10.87;100.00
20013;BME280;10167;42.852;23.042;2023-12-14T09:02:46;94017.91;;;11.06;100.00
20013;BME280;10167;42.852;23.042;2023-12-14T09:05:16;94018.19;;;11.24;100.00
20013;BME280;10167;42.852;23.042;2023-12-14T09:07:48;94028.84;;;11.45;100.00
20013;BME280;10167;42.852;23.042;2023-12-14T09:10:24;94033.09;;;11.51;100.00
20013;BME280;10167;42.852;23.042;2023-12-14T09:12:54;94027.53;;;11.57;100.00
20013;BME280;10167;42.852;23.042;2023-12-14T09:15:24;94025.66;;;11.63;100.00
20013;BME280;10167;42.852;23.042;2023-12-14T09:17:54;94027.78;;;11.56;100.00
20013;BME280;10167;42.852;23.042;2023-12-14T09:20:24;94026.75;;;11.62;100.00
20013;BME280;10167;42.852;23.042;2023-12-14T09:22:55;94030.72;;;11.70;100.00
20013;BME280;10167;42.852;23.042;2023-12-14T09:25:26;94027.25;;;11.64;100.00
20013;BME280;10167;42.852;23.042;2023-12-14T09:27:56;94033.09;;;11.66;100.00
20013;BME280;10167;42.852;23.042;2023-12-14T09:30:26;94029.16;;;11.74;100.00
20013;BME280;10167;42.852;23.042;2023-12-14T09:32:55;94042.16;;;11.80;100.00
20013;BME280;10167;42.852;23.042;2023-12-14T09:35:26;94031.03;;;11.83;100.00
20013;BME280;10167;42.852;23.042;2023-12-14T09:37:56;94035.53;;;11.83;100.00
20013;BME280;10167;42.852;23.042;2023-12-14T09:40:28;94036.06;;;11.90;100.00
20013;BME280;10167;42.852;23.042;2023-12-14T09:42:58;94034.72;;;11.97;100.00
20013;BME280;10167;42.852;23.042;2023-12-14T09:45:30;94039.53;;;12.06;100.00
20013;BME280;10167;42.852;23.042;2023-12-14T09:48:01;94034.19;;;12.00;100.00
20013;BME280;10167;42.852;23.042;2023-12-14T09:50:33;94022.00;;;12.10;100.00
20013;BME280;10167;42.852;23.042;2023-12-14T09:53:04;94023.34;;;11.92;100.00
20013;BME280;10167;42.852;23.042;2023-12-14T09:55:35;94028.13;;;11.85;100.00
20013;BME280;10167;42.852;23.042;2023-12-14T09:58:05;94037.34;;;11.67;100.00
20013;BME280;10167;42.852;23.042;2023-12-14T10:00:39;94030.47;;;11.61;100.00
20013;BME280;10167;42.852;23.042;2023-12-14T10:03:20;94011.63;;;11.47;100.00
20013;BME280;10167;42.852;23.042;2023-12-14T10:05:51;94005.50;;;11.37;100.00
20013;BME280;10167;42.852;23.042;2023-12-14T10:08:22;94007.91;;;11.38;100.00
20013;BME280;10167;42.852;23.042;2023-12-14T10:10:54;94002.28;;;11.29;100.00
20013;BME280;10167;42.852;23.042;2023-12-14T10:13:36;94024.84;;;11.27;100.00
20013;BME280;10167;42.852;23.042;2023-12-14T10:16:07;94039.66;;;11.23;100.00
20013;BME280;10167;42.852;23.042;2023-12-14T10:18:37;94026.88;;;11.00;100.00
20013;BME280;10167;42.852;23.042;2023-12-14T10:21:08;94036.16;;;11.07;100.00
20013;BME280;10167;42.852;23.042;2023-12-14T10:23:39;94033.72;;;10.90;100.00
20013;BME280;10167;42.852;23.042;2023-12-14T10:26:14;94037.13;;;10.86;100.00
20013;BME280;10167;42.852;23.042;2023-12-14T10:28:44;94047.69;;;10.76;100.00
20013;BME280;10167;42.852;23.042;2023-12-14T10:31:14;94051.06;;;10.61;100.00
20013;BME280;10167;42.852;23.042;2023-12-14T10:33:46;94066.13;;;10.55;100.00
20013;BME280;10167;42.852;23.042;2023-12-14T10:36:18;94060.28;;;10.53;100.00
20013;BME280;10167;42.852;23.042;2023-12-14T10:38:52;94064.97;;;10.41;100.00
20013;BME280;10167;42.852;23.042;2023-12-14T10:41:24;94069.16;;;10.32;100.00
20013;BME280;10167;42.852;23.042;2023-12-14T10:43:55;94076.78;;;10.29;100.00
20013;BME280;10167;42.852;23.042;2023-12-14T10:46:48;94094.16;;;10.14;100.00
20013;BME280;10167;42.852;23.042;2023-12-14T10:49:18;94104.38;;;10.06;100.00
20013;BME280;10167;42.852;23.042;2023-12-14T10:51:48;94109.88;;;9.99;100.00
20013;BME280;10167;42.852;23.042;2023-12-14T10:54:18;94114.78;;;9.86;100.00
20013;BME280;10167;42.852;23.042;2023-12-14T10:56:50;94116.38;;;9.87;100.00
20013;BME280;10167;42.852;23.042;2023-12-14T10:59:24;94122.72;;;9.86;100.00
20013;BME280;10167;42.852;23.042;2023-12-14T11:01:55;94112.09;;;9.80;100.00
20013;BME280;10167;42.852;23.042;2023-12-14T11:04:26;94122.69;;;9.80;100.00
20013;BME280;10167;42.852;23.042;2023-12-14T11:06:57;94117.34;;;9.75;100.00
20013;BME280;10167;42.852;23.042;2023-12-14T11:09:27;94115.44;;;9.71;100.00
20013;BME280;10167;42.852;23.042;2023-12-14T11:12:00;94099.75;;;9.59;100.00
20013;BME280;10167;42.852;23.042;2023-12-14T11:14:31;94097.09;;;9.59;100.00
20013;BME280;10167;42.852;23.042;2023-12-14T11:17:05;94116.91;;;9.57;100.00
20013;BME280;10167;42.852;23.042;2023-12-14T11:19:36;94127.59;;;9.45;100.00
20013;BME280;10167;42.852;23.042;2023-12-14T11:22:10;94131.28;;;9.44;100.00
20013;BME280;10167;42.852;23.042;2023-12-14T11:24:41;94140.56;;;9.46;100.00
20013;BME280;10167;42.852;23.042;2023-12-14T11:27:14;94140.47;;;9.36;100.00
20013;BME280;10167;42.852;23.042;2023-12-14T11:29:45;94136.25;;;9.40;100.00
20013;BME280;10167;42.852;23.042;2023-12-14T11:32:17;94143.34;;;9.35;100.00
20013;BME280;10167;42.852;23.042;2023-12-14T11:34:48;94138.88;;;9.35;100.00
20013;BME280;10167;42.852;23.042;2023-12-14T11:37:18;94150.97;;;9.31;100.00
20013;BME280;10167;42.852;23.042;2023-12-14T11:39:50;94160.16;;;9.29;100.00
20013;BME280;10167;42.852;23.042;2023-12-14T11:42:23;94163.19;;;9.16;100.00
20013;BME280;10167;42.852;23.042;2023-12-14T11:44:54;94172.09;;;9.09;100.00
20013;BME280;10167;42.852;23.042;2023-12-14T11:47:25;94169.88;;;9.01;100.00
20013;BME280;10167;42.852;23.042;2023-12-14T11:49:55;94174.38;;;9.01;100.00
20013;BME280;10167;42.852;23.042;2023-12-14T11:52:24;94159.81;;;8.98;100.00
20013;BME280;10167;42.852;23.042;2023-12-14T11:54:54;94165.44;;;8.85;100.00
20013;BME280;10167;42.852;23.042;2023-12-14T11:57:29;94156.25;;;8.71;100.00
20013;BME280;10167;42.852;23.042;2023-12-14T11:59:59;94150.91;;;8.66;100.00
20013;BME280;10167;42.852;23.042;2023-12-14T12:02:31;94159.31;;;8.63;100.00
20013;BME280;10167;42.852;23.042;2023-12-14T12:05:02;94168.34;;;8.67;100.00
20013;BME280;10167;42.852;23.042;2023-12-14T12:07:33;94154.59;;;8.65;100.00
20013;BME280;10167;42.852;23.042;2023-12-14T12:10:05;94161.00;;;8.52;100.00
20013;BME280;10167;42.852;23.042;2023-12-14T12:12:37;94169.16;;;8.51;100.00
20013;BME280;10167;42.852;23.042;2023-12-14T12:15:09;94172.03;;;8.49;100.00
20013;BME280;10167;42.852;23.042;2023-12-14T12:17:40;94171.22;;;8.49;100.00
20013;BME280;10167;42.852;23.042;2023-12-14T12:20:12;94174.84;;;8.43;100.00
20013;BME280;10167;42.852;23.042;2023-12-14T12:22:42;94173.47;;;8.40;100.00
20013;BME280;10167;42.852;23.042;2023-12-14T12:25:12;94181.63;;;8.38;100.00
20013;BME280;10167;42.852;23.042;2023-12-14T12:27:43;94184.06;;;8.28;100.00
20013;BME280;10167;42.852;23.042;2023-12-14T12:30:12;94186.16;;;8.26;100.00
20013;BME280;10167;42.852;23.042;2023-12-14T12:32:43;94196.47;;;8.28;100.00
20013;BME280;10167;42.852;23.042;2023-12-14T12:35:12;94192.28;;;8.15;100.00
20013;BME280;10167;42.852;23.042;2023-12-14T12:37:42;94172.00;;;8.16;100.00
20013;BME280;10167;42.852;23.042;2023-12-14T12:40:12;94186.97;;;8.10;100.00
20013;BME280;10167;42.852;23.042;2023-12-14T12:42:49;94193.03;;;8.11;100.00
20013;BME280;10167;42.852;23.042;2023-12-14T12:45:19;94201.06;;;8.04;100.00
20013;BME280;10167;42.852;23.042;2023-12-14T12:47:50;94183.66;;;8.03;100.00
20013;BME280;10167;42.852;23.042;2023-12-14T12:50:20;94196.94;;;8.08;100.00
20013;BME280;10167;42.852;23.042;2023-12-14T12:52:49;94195.56;;;8.06;100.00
20013;BME280;10167;42.852;23.042;2023-12-14T12:55:19;94197.56;;;7.98;100.00
20013;BME280;10167;42.852;23.042;2023-12-14T12:57:51;94193.16;;;8.04;100.00
20013;BME280;10167;42.852;23.042;2023-12-14T13:00:20;94189.97;;;8.02;100.00
20013;BME280;10167;42.852;23.042;2023-12-14T13:02:50;94213.38;;;7.98;100.00
20013;BME280;10167;42.852;23.042;2023-12-14T13:05:20;94205.25;;;8.00;100.00